sensor_id;sensor_type;location;lat;lon;timestamp;P1;durP1;ratioP1;P2;durP2;ratioP2
63434;SDS011;68814;50.872;5.306;2023-12-20T00:01:35;9.82;;;1.50;;
63434;SDS011;68814;50.872;5.306;2023-12-20T00:04:01;13.82;;;1.75;;
63434;SDS011;68814;50.872;5.306;2023-12-20T00:06:27;14.20;;;1.90;;
63434;SDS011;68814;50.872;5.306;2023-12-20T00:08:53;12.05;;;1.60;;
63434;SDS011;68814;50.872;5.306;2023-12-20T00:11:18;13.95;;;1.50;;
63434;SDS011;68814;50.872;5.306;2023-12-20T00:13:44;14.23;;;1.80;;
63434;SDS011;68814;50.872;5.306;2023-12-20T00:16:10;16.40;;;2.08;;
63434;SDS011;68814;50.872;5.306;2023-12-20T00:18:35;9.98;;;1.60;;
63434;SDS011;68814;50.872;5.306;2023-12-20T00:21:01;11.30;;;2.10;;
63434;SDS011;68814;50.872;5.306;2023-12-20T00:23:26;11.13;;;1.40;;
63434;SDS011;68814;50.872;5.306;2023-12-20T00:25:52;24.00;;;2.00;;
63434;SDS011;68814;50.872;5.306;2023-12-20T00:28:18;13.88;;;1.75;;
63434;SDS011;68814;50.872;5.306;2023-12-20T00:30:43;13.15;;;2.28;;
63434;SDS011;68814;50.872;5.306;2023-12-20T00:33:09;8.75;;;1.60;;
63434;SDS011;68814;50.872;5.306;2023-12-20T00:35:35;14.13;;;2.08;;
63434;SDS011;68814;50.872;5.306;2023-12-20T00:38:00;16.52;;;1.92;;
63434;SDS011;68814;50.872;5.306;2023-12-20T00:40:26;9.52;;;1.63;;
63434;SDS011;68814;50.872;5.306;2023-12-20T00:42:51;10.68;;;1.40;;
63434;SDS011;68814;50.872;5.306;2023-12-20T00:45:17;10.80;;;1.23;;
63434;SDS011;68814;50.872;5.306;2023-12-20T00:47:43;18.75;;;2.20;;
63434;SDS011;68814;50.872;5.306;2023-12-20T00:50:08;19.63;;;1.70;;
63434;SDS011;68814;50.872;5.306;2023-12-20T00:52:34;8.13;;;1.45;;
63434;SDS011;68814;50.872;5.306;2023-12-20T00:55:00;13.40;;;1.67;;
63434;SDS011;68814;50.872;5.306;2023-12-20T00:57:28;12.23;;;1.50;;
63434;SDS011;68814;50.872;5.306;2023-12-20T00:59:55;10.13;;;1.70;;
63434;SDS011;68814;50.872;5.306;2023-12-20T01:02:21;14.75;;;1.75;;
63434;SDS011;68814;50.872;5.306;2023-12-20T01:04:47;12.75;;;2.00;;
63434;SDS011;68814;50.872;5.306;2023-12-20T01:07:12;11.45;;;1.33;;
63434;SDS011;68814;50.872;5.306;2023-12-20T01:09:38;11.10;;;1.55;;
63434;SDS011;68814;50.872;5.306;2023-12-20T01:12:06;11.65;;;1.85;;
63434;SDS011;68814;50.872;5.306;2023-12-20T01:14:31;14.55;;;1.88;;
63434;SDS011;68814;50.872;5.306;2023-12-20T01:16:57;14.15;;;1.95;;
63434;SDS011;68814;50.872;5.306;2023-12-20T01:19:24;17.08;;;2.10;;
63434;SDS011;68814;50.872;5.306;2023-12-20T01:21:50;15.70;;;2.10;;
63434;SDS011;68814;50.872;5.306;2023-12-20T01:24:15;11.10;;;2.03;;
63434;SDS011;68814;50.872;5.306;2023-12-20T01:26:41;11.23;;;2.08;;
63434;SDS011;68814;50.872;5.306;2023-12-20T01:29:07;13.95;;;2.33;;
63434;SDS011;68814;50.872;5.306;2023-12-20T01:31:32;13.30;;;2.38;;
63434;SDS011;68814;50.872;5.306;2023-12-20T01:33:58;16.65;;;1.80;;
63434;SDS011;68814;50.872;5.306;2023-12-20T01:36:24;11.73;;;2.50;;
63434;SDS011;68814;50.872;5.306;2023-12-20T01:38:49;20.60;;;1.95;;
63434;SDS011;68814;50.872;5.306;2023-12-20T01:41:15;15.77;;;2.05;;
63434;SDS011;68814;50.872;5.306;2023-12-20T01:43:41;9.43;;;2.15;;
63434;SDS011;68814;50.872;5.306;2023-12-20T01:46:06;10.90;;;2.00;;
63434;SDS011;68814;50.872;5.306;2023-12-20T01:48:32;11.05;;;2.25;;
63434;SDS011;68814;50.872;5.306;2023-12-20T01:50:59;12.07;;;1.77;;
63434;SDS011;68814;50.872;5.306;2023-12-20T01:53:25;9.18;;;1.40;;
63434;SDS011;68814;50.872;5.306;2023-12-20T01:55:54;22.48;;;2.67;;
63434;SDS011;68814;50.872;5.306;2023-12-20T01:58:21;21.55;;;2.83;;
63434;SDS011;68814;50.872;5.306;2023-12-20T02:00:48;11.25;;;2.83;;
63434;SDS011;68814;50.872;5.306;2023-12-20T02:03:16;8.27;;;1.85;;
63434;SDS011;68814;50.872;5.306;2023-12-20T02:05:43;16.42;;;2.47;;
63434;SDS011;68814;50.872;5.306;2023-12-20T02:08:10;14.88;;;2.10;;
63434;SDS011;68814;50.872;5.306;2023-12-20T02:10:36;13.60;;;2.97;;
63434;SDS011;68814;50.872;5.306;2023-12-20T02:13:02;13.93;;;1.92;;
63434;SDS011;68814;50.872;5.306;2023-12-20T02:15:29;8.63;;;2.00;;
63434;SDS011;68814;50.872;5.306;2023-12-20T02:17:55;13.70;;;1.80;;
63434;SDS011;68814;50.872;5.306;2023-12-20T02:20:21;17.63;;;2.17;;
63434;SDS011;68814;50.872;5.306;2023-12-20T02:22:47;11.13;;;1.85;;
63434;SDS011;68814;50.872;5.306;2023-12-20T02:25:12;12.98;;;2.67;;
63434;SDS011;68814;50.872;5.306;2023-12-20T02:27:38;17.63;;;2.58;;
63434;SDS011;68814;50.872;5.306;2023-12-20T02:30:05;15.18;;;3.50;;
63434;SDS011;68814;50.872;5.306;2023-12-20T02:32:34;11.65;;;2.13;;
63434;SDS011;68814;50.872;5.306;2023-12-20T02:34:59;19.90;;;2.25;;
63434;SDS011;68814;50.872;5.306;2023-12-20T02:37:25;9.80;;;1.95;;
63434;SDS011;68814;50.872;5.306;2023-12-20T02:39:51;12.48;;;1.92;;
63434;SDS011;68814;50.872;5.306;2023-12-20T02:42:16;6.78;;;1.95;;
63434;SDS011;68814;50.872;5.306;2023-12-20T02:44:42;15.82;;;2.50;;
63434;SDS011;68814;50.872;5.306;2023-12-20T02:47:08;7.07;;;1.60;;
63434;SDS011;68814;50.872;5.306;2023-12-20T02:49:33;10.15;;;1.85;;
63434;SDS011;68814;50.872;5.306;2023-12-20T02:51:59;13.27;;;2.40;;
63434;SDS011;68814;50.872;5.306;2023-12-20T02:54:25;16.35;;;2.05;;
63434;SDS011;68814;50.872;5.306;2023-12-20T02:56:50;18.27;;;2.28;;
63434;SDS011;68814;50.872;5.306;2023-12-20T02:59:21;13.73;;;2.20;;
63434;SDS011;68814;50.872;5.306;2023-12-20T03:01:47;11.57;;;1.73;;
63434;SDS011;68814;50.872;5.306;2023-12-20T03:04:12;12.77;;;2.25;;
63434;SDS011;68814;50.872;5.306;2023-12-20T03:06:38;13.18;;;2.17;;
63434;SDS011;68814;50.872;5.306;2023-12-20T03:09:04;8.88;;;1.60;;
63434;SDS011;68814;50.872;5.306;2023-12-20T03:11:30;17.75;;;1.95;;
63434;SDS011;68814;50.872;5.306;2023-12-20T03:13:56;14.52;;;2.78;;
63434;SDS011;68814;50.872;5.306;2023-12-20T03:16:22;18.65;;;2.67;;
63434;SDS011;68814;50.872;5.306;2023-12-20T03:18:48;11.48;;;1.67;;
63434;SDS011;68814;50.872;5.306;2023-12-20T03:21:14;12.93;;;2.05;;
63434;SDS011;68814;50.872;5.306;2023-12-20T03:23:42;13.02;;;2.30;;
63434;SDS011;68814;50.872;5.306;2023-12-20T03:26:11;20.65;;;2.95;;
63434;SDS011;68814;50.872;5.306;2023-12-20T03:28:36;18.27;;;2.47;;
63434;SDS011;68814;50.872;5.306;2023-12-20T03:31:02;17.75;;;4.28;;
63434;SDS011;68814;50.872;5.306;2023-12-20T03:33:28;24.05;;;2.50;;
63434;SDS011;68814;50.872;5.306;2023-12-20T03:35:54;10.00;;;2.63;;
63434;SDS011;68814;50.872;5.306;2023-12-20T03:38:20;17.70;;;2.42;;
63434;SDS011;68814;50.872;5.306;2023-12-20T03:40:48;15.20;;;2.75;;
63434;SDS011;68814;50.872;5.306;2023-12-20T03:43:15;19.95;;;3.03;;
63434;SDS011;68814;50.872;5.306;2023-12-20T03:45:41;12.52;;;3.20;;
63434;SDS011;68814;50.872;5.306;2023-12-20T03:48:07;13.75;;;2.67;;
63434;SDS011;68814;50.872;5.306;2023-12-20T03:50:33;17.42;;;3.00;;
63434;SDS011;68814;50.872;5.306;2023-12-20T03:52:59;20.63;;;2.95;;
63434;SDS011;68814;50.872;5.306;2023-12-20T03:55:25;18.00;;;3.78;;
63434;SDS011;68814;50.872;5.306;2023-12-20T03:57:51;14.30;;;3.13;;
63434;SDS011;68814;50.872;5.306;2023-12-20T04:00:17;23.98;;;3.50;;
63434;SDS011;68814;50.872;5.306;2023-12-20T04:02:42;19.10;;;2.78;;
63434;SDS011;68814;50.872;5.306;2023-12-20T04:05:09;18.33;;;3.05;;
63434;SDS011;68814;50.872;5.306;2023-12-20T04:07:35;13.38;;;2.58;;
63434;SDS011;68814;50.872;5.306;2023-12-20T04:10:01;22.92;;;2.90;;
63434;SDS011;68814;50.872;5.306;2023-12-20T04:12:28;14.27;;;2.80;;
63434;SDS011;68814;50.872;5.306;2023-12-20T04:14:54;16.45;;;3.17;;
63434;SDS011;68814;50.872;5.306;2023-12-20T04:17:20;17.38;;;2.67;;
63434;SDS011;68814;50.872;5.306;2023-12-20T04:19:47;23.40;;;3.78;;
63434;SDS011;68814;50.872;5.306;2023-12-20T04:22:13;16.23;;;2.97;;
63434;SDS011;68814;50.872;5.306;2023-12-20T04:24:39;20.77;;;2.90;;
63434;SDS011;68814;50.872;5.306;2023-12-20T04:27:07;15.40;;;2.92;;
63434;SDS011;68814;50.872;5.306;2023-12-20T04:29:33;21.67;;;3.05;;
63434;SDS011;68814;50.872;5.306;2023-12-20T04:31:59;20.45;;;3.78;;
63434;SDS011;68814;50.872;5.306;2023-12-20T04:34:25;18.10;;;3.13;;
63434;SDS011;68814;50.872;5.306;2023-12-20T04:36:51;21.33;;;3.40;;
63434;SDS011;68814;50.872;5.306;2023-12-20T04:39:17;23.08;;;3.05;;
63434;SDS011;68814;50.872;5.306;2023-12-20T04:41:42;18.92;;;3.20;;
63434;SDS011;68814;50.872;5.306;2023-12-20T04:44:08;21.73;;;3.60;;
63434;SDS011;68814;50.872;5.306;2023-12-20T04:46:34;23.52;;;3.35;;
63434;SDS011;68814;50.872;5.306;2023-12-20T04:49:00;13.43;;;3.15;;
63434;SDS011;68814;50.872;5.306;2023-12-20T04:51:26;17.42;;;3.33;;
63434;SDS011;68814;50.872;5.306;2023-12-20T04:53:52;20.63;;;3.63;;
63434;SDS011;68814;50.872;5.306;2023-12-20T04:56:17;19.10;;;4.43;;
63434;SDS011;68814;50.872;5.306;2023-12-20T04:58:45;15.10;;;3.58;;
63434;SDS011;68814;50.872;5.306;2023-12-20T05:01:12;19.23;;;3.50;;
63434;SDS011;68814;50.872;5.306;2023-12-20T05:03:37;12.15;;;3.63;;
63434;SDS011;68814;50.872;5.306;2023-12-20T05:06:03;21.17;;;4.35;;
63434;SDS011;68814;50.872;5.306;2023-12-20T05:08:29;14.93;;;4.00;;
63434;SDS011;68814;50.872;5.306;2023-12-20T05:10:55;13.52;;;3.53;;
63434;SDS011;68814;50.872;5.306;2023-12-20T05:13:21;13.05;;;3.75;;
63434;SDS011;68814;50.872;5.306;2023-12-20T05:15:46;15.80;;;4.07;;
63434;SDS011;68814;50.872;5.306;2023-12-20T05:18:12;19.02;;;3.95;;
63434;SDS011;68814;50.872;5.306;2023-12-20T05:20:38;19.33;;;4.20;;
63434;SDS011;68814;50.872;5.306;2023-12-20T05:23:04;17.48;;;3.70;;
63434;SDS011;68814;50.872;5.306;2023-12-20T05:25:30;25.67;;;4.93;;
63434;SDS011;68814;50.872;5.306;2023-12-20T05:27:56;20.63;;;4.03;;
63434;SDS011;68814;50.872;5.306;2023-12-20T05:30:21;13.85;;;4.18;;
63434;SDS011;68814;50.872;5.306;2023-12-20T05:32:47;17.92;;;3.95;;
63434;SDS011;68814;50.872;5.306;2023-12-20T05:35:13;20.45;;;4.63;;
63434;SDS011;68814;50.872;5.306;2023-12-20T05:37:39;27.33;;;4.18;;
63434;SDS011;68814;50.872;5.306;2023-12-20T05:40:05;19.33;;;3.97;;
63434;SDS011;68814;50.872;5.306;2023-12-20T05:42:31;14.93;;;3.80;;
63434;SDS011;68814;50.872;5.306;2023-12-20T05:44:59;24.27;;;5.15;;
63434;SDS011;68814;50.872;5.306;2023-12-20T05:47:27;22.23;;;3.83;;
63434;SDS011;68814;50.872;5.306;2023-12-20T05:49:52;19.33;;;3.33;;
63434;SDS011;68814;50.872;5.306;2023-12-20T05:52:18;16.92;;;3.40;;
63434;SDS011;68814;50.872;5.306;2023-12-20T05:54:44;15.15;;;3.97;;
63434;SDS011;68814;50.872;5.306;2023-12-20T05:57:09;21.35;;;3.35;;
63434;SDS011;68814;50.872;5.306;2023-12-20T05:59:35;20.70;;;4.72;;
63434;SDS011;68814;50.872;5.306;2023-12-20T06:02:02;25.95;;;4.43;;
63434;SDS011;68814;50.872;5.306;2023-12-20T06:04:28;23.63;;;3.75;;
63434;SDS011;68814;50.872;5.306;2023-12-20T06:06:54;19.83;;;3.42;;
63434;SDS011;68814;50.872;5.306;2023-12-20T06:09:22;15.70;;;3.28;;
63434;SDS011;68814;50.872;5.306;2023-12-20T06:11:48;15.35;;;3.95;;
63434;SDS011;68814;50.872;5.306;2023-12-20T06:14:13;18.83;;;3.45;;
63434;SDS011;68814;50.872;5.306;2023-12-20T06:16:39;20.20;;;6.07;;
63434;SDS011;68814;50.872;5.306;2023-12-20T06:19:05;19.55;;;3.65;;
63434;SDS011;68814;50.872;5.306;2023-12-20T06:21:30;15.27;;;4.15;;
63434;SDS011;68814;50.872;5.306;2023-12-20T06:23:56;15.40;;;3.42;;
63434;SDS011;68814;50.872;5.306;2023-12-20T06:26:23;17.63;;;4.63;;
63434;SDS011;68814;50.872;5.306;2023-12-20T06:28:49;20.05;;;4.75;;
63434;SDS011;68814;50.872;5.306;2023-12-20T06:31:14;15.60;;;3.83;;
63434;SDS011;68814;50.872;5.306;2023-12-20T06:33:40;16.63;;;5.13;;
63434;SDS011;68814;50.872;5.306;2023-12-20T06:36:07;24.77;;;4.78;;
63434;SDS011;68814;50.872;5.306;2023-12-20T06:38:34;23.92;;;4.63;;
63434;SDS011;68814;50.872;5.306;2023-12-20T06:41:00;30.58;;;5.50;;
63434;SDS011;68814;50.872;5.306;2023-12-20T06:43:25;22.38;;;4.45;;
63434;SDS011;68814;50.872;5.306;2023-12-20T06:45:51;17.77;;;3.85;;
63434;SDS011;68814;50.872;5.306;2023-12-20T06:48:17;24.27;;;4.38;;
63434;SDS011;68814;50.872;5.306;2023-12-20T06:50:42;13.93;;;4.35;;
63434;SDS011;68814;50.872;5.306;2023-12-20T06:53:08;18.70;;;5.30;;
63434;SDS011;68814;50.872;5.306;2023-12-20T06:55:37;22.85;;;5.68;;
63434;SDS011;68814;50.872;5.306;2023-12-20T06:58:03;20.65;;;3.83;;
63434;SDS011;68814;50.872;5.306;2023-12-20T07:00:29;22.92;;;4.88;;
63434;SDS011;68814;50.872;5.306;2023-12-20T07:02:55;19.83;;;4.50;;
63434;SDS011;68814;50.872;5.306;2023-12-20T07:05:21;15.80;;;3.83;;
63434;SDS011;68814;50.872;5.306;2023-12-20T07:07:47;23.92;;;4.65;;
63434;SDS011;68814;50.872;5.306;2023-12-20T07:10:13;21.70;;;4.70;;
63434;SDS011;68814;50.872;5.306;2023-12-20T07:12:39;20.75;;;4.85;;
63434;SDS011;68814;50.872;5.306;2023-12-20T07:15:05;24.10;;;4.40;;
63434;SDS011;68814;50.872;5.306;2023-12-20T07:17:32;17.58;;;5.25;;
63434;SDS011;68814;50.872;5.306;2023-12-20T07:19:59;17.73;;;4.85;;
63434;SDS011;68814;50.872;5.306;2023-12-20T07:22:28;23.45;;;5.13;;
63434;SDS011;68814;50.872;5.306;2023-12-20T07:24:56;21.45;;;4.80;;
63434;SDS011;68814;50.872;5.306;2023-12-20T07:27:22;24.58;;;4.68;;
63434;SDS011;68814;50.872;5.306;2023-12-20T07:29:48;23.83;;;4.70;;
63434;SDS011;68814;50.872;5.306;2023-12-20T07:32:14;17.40;;;4.57;;
63434;SDS011;68814;50.872;5.306;2023-12-20T07:34:39;21.77;;;5.72;;
63434;SDS011;68814;50.872;5.306;2023-12-20T07:37:05;17.95;;;4.25;;
63434;SDS011;68814;50.872;5.306;2023-12-20T07:39:31;21.45;;;5.18;;
63434;SDS011;68814;50.872;5.306;2023-12-20T07:41:56;27.05;;;5.28;;
63434;SDS011;68814;50.872;5.306;2023-12-20T07:44:22;18.75;;;4.10;;
63434;SDS011;68814;50.872;5.306;2023-12-20T07:46:48;26.58;;;5.55;;
63434;SDS011;68814;50.872;5.306;2023-12-20T07:49:13;20.45;;;4.47;;
63434;SDS011;68814;50.872;5.306;2023-12-20T07:51:39;18.13;;;4.20;;
63434;SDS011;68814;50.872;5.306;2023-12-20T07:54:05;25.02;;;5.35;;
63434;SDS011;68814;50.872;5.306;2023-12-20T07:56:33;20.90;;;4.45;;
63434;SDS011;68814;50.872;5.306;2023-12-20T07:58:58;22.25;;;3.58;;
63434;SDS011;68814;50.872;5.306;2023-12-20T08:01:24;24.52;;;4.47;;
63434;SDS011;68814;50.872;5.306;2023-12-20T08:03:50;21.80;;;5.38;;
63434;SDS011;68814;50.872;5.306;2023-12-20T08:06:15;25.70;;;4.10;;
63434;SDS011;68814;50.872;5.306;2023-12-20T08:08:42;16.70;;;3.30;;
63434;SDS011;68814;50.872;5.306;2023-12-20T08:11:12;21.90;;;3.42;;
63434;SDS011;68814;50.872;5.306;2023-12-20T08:13:38;15.45;;;3.47;;
63434;SDS011;68814;50.872;5.306;2023-12-20T08:16:06;18.90;;;4.03;;
63434;SDS011;68814;50.872;5.306;2023-12-20T08:18:31;22.33;;;4.10;;
63434;SDS011;68814;50.872;5.306;2023-12-20T08:21:00;21.17;;;4.47;;
63434;SDS011;68814;50.872;5.306;2023-12-20T08:25:56;22.00;;;4.20;;
63434;SDS011;68814;50.872;5.306;2023-12-20T08:28:24;21.98;;;4.45;;
63434;SDS011;68814;50.872;5.306;2023-12-20T08:30:49;23.70;;;4.43;;
63434;SDS011;68814;50.872;5.306;2023-12-20T08:33:19;25.80;;;5.38;;
63434;SDS011;68814;50.872;5.306;2023-12-20T08:35:45;21.38;;;3.55;;
63434;SDS011;68814;50.872;5.306;2023-12-20T08:38:11;16.92;;;3.28;;
63434;SDS011;68814;50.872;5.306;2023-12-20T08:40:37;22.45;;;5.60;;
63434;SDS011;68814;50.872;5.306;2023-12-20T08:43:03;16.17;;;3.90;;
63434;SDS011;68814;50.872;5.306;2023-12-20T08:45:28;21.40;;;3.90;;
63434;SDS011;68814;50.872;5.306;2023-12-20T08:47:54;18.98;;;3.65;;
63434;SDS011;68814;50.872;5.306;2023-12-20T08:50:20;24.65;;;3.63;;
63434;SDS011;68814;50.872;5.306;2023-12-20T08:52:46;19.38;;;3.45;;
63434;SDS011;68814;50.872;5.306;2023-12-20T08:55:12;18.05;;;3.15;;
63434;SDS011;68814;50.872;5.306;2023-12-20T08:57:39;16.98;;;3.35;;
63434;SDS011;68814;50.872;5.306;2023-12-20T09:00:05;17.67;;;3.25;;
63434;SDS011;68814;50.872;5.306;2023-12-20T09:02:35;13.73;;;3.28;;
63434;SDS011;68814;50.872;5.306;2023-12-20T09:05:01;16.23;;;2.75;;
63434;SDS011;68814;50.872;5.306;2023-12-20T09:07:37;14.20;;;2.40;;
63434;SDS011;68814;50.872;5.306;2023-12-20T09:10:03;19.20;;;2.72;;
63434;SDS011;68814;50.872;5.306;2023-12-20T09:12:29;13.85;;;2.63;;
63434;SDS011;68814;50.872;5.306;2023-12-20T09:15:01;12.60;;;2.80;;
63434;SDS011;68814;50.872;5.306;2023-12-20T09:17:28;13.40;;;3.08;;
63434;SDS011;68814;50.872;5.306;2023-12-20T09:19:53;20.15;;;3.20;;
63434;SDS011;68814;50.872;5.306;2023-12-20T09:22:19;16.75;;;2.83;;
63434;SDS011;68814;50.872;5.306;2023-12-20T09:24:45;14.65;;;2.80;;
63434;SDS011;68814;50.872;5.306;2023-12-20T09:27:10;17.55;;;2.70;;
63434;SDS011;68814;50.872;5.306;2023-12-20T09:29:36;21.73;;;3.08;;
63434;SDS011;68814;50.872;5.306;2023-12-20T09:32:01;16.70;;;2.42;;
63434;SDS011;68814;50.872;5.306;2023-12-20T09:34:27;12.10;;;2.83;;
63434;SDS011;68814;50.872;5.306;2023-12-20T09:36:54;23.25;;;2.75;;
63434;SDS011;68814;50.872;5.306;2023-12-20T09:39:21;12.85;;;3.33;;
63434;SDS011;68814;50.872;5.306;2023-12-20T09:41:51;14.90;;;1.95;;
63434;SDS011;68814;50.872;5.306;2023-12-20T09:44:26;14.85;;;2.63;;
63434;SDS011;68814;50.872;5.306;2023-12-20T09:46:52;20.05;;;2.25;;
63434;SDS011;68814;50.872;5.306;2023-12-20T09:49:19;21.20;;;2.58;;
63434;SDS011;68814;50.872;5.306;2023-12-20T09:51:46;10.05;;;2.05;;
63434;SDS011;68814;50.872;5.306;2023-12-20T09:54:13;18.92;;;3.58;;
63434;SDS011;68814;50.872;5.306;2023-12-20T09:56:40;15.38;;;2.75;;
63434;SDS011;68814;50.872;5.306;2023-12-20T09:59:06;21.48;;;3.45;;
63434;SDS011;68814;50.872;5.306;2023-12-20T10:01:32;16.48;;;2.20;;
63434;SDS011;68814;50.872;5.306;2023-12-20T10:04:00;18.88;;;2.70;;
63434;SDS011;68814;50.872;5.306;2023-12-20T10:06:32;16.30;;;2.25;;
63434;SDS011;68814;50.872;5.306;2023-12-20T10:08:57;17.13;;;3.20;;
63434;SDS011;68814;50.872;5.306;2023-12-20T10:11:24;14.40;;;2.58;;
63434;SDS011;68814;50.872;5.306;2023-12-20T10:13:50;17.33;;;3.20;;
63434;SDS011;68814;50.872;5.306;2023-12-20T10:16:16;16.95;;;2.80;;
63434;SDS011;68814;50.872;5.306;2023-12-20T10:18:41;22.70;;;3.85;;
63434;SDS011;68814;50.872;5.306;2023-12-20T10:21:07;18.73;;;2.90;;
63434;SDS011;68814;50.872;5.306;2023-12-20T10:23:35;11.65;;;2.95;;
63434;SDS011;68814;50.872;5.306;2023-12-20T10:26:01;18.80;;;4.13;;
63434;SDS011;68814;50.872;5.306;2023-12-20T10:28:28;17.60;;;4.05;;
63434;SDS011;68814;50.872;5.306;2023-12-20T10:30:59;17.40;;;3.70;;
63434;SDS011;68814;50.872;5.306;2023-12-20T10:33:25;19.42;;;3.28;;
63434;SDS011;68814;50.872;5.306;2023-12-20T10:35:52;16.73;;;3.50;;
63434;SDS011;68814;50.872;5.306;2023-12-20T10:38:19;16.20;;;3.58;;
63434;SDS011;68814;50.872;5.306;2023-12-20T10:40:45;23.48;;;4.50;;
63434;SDS011;68814;50.872;5.306;2023-12-20T10:43:11;15.23;;;3.20;;
63434;SDS011;68814;50.872;5.306;2023-12-20T10:45:37;12.95;;;3.25;;
63434;SDS011;68814;50.872;5.306;2023-12-20T10:48:03;23.10;;;3.05;;
63434;SDS011;68814;50.872;5.306;2023-12-20T10:50:30;20.35;;;3.10;;
63434;SDS011;68814;50.872;5.306;2023-12-20T10:52:57;12.23;;;2.50;;
63434;SDS011;68814;50.872;5.306;2023-12-20T10:55:23;18.27;;;2.95;;
63434;SDS011;68814;50.872;5.306;2023-12-20T10:57:53;11.98;;;2.25;;
63434;SDS011;68814;50.872;5.306;2023-12-20T11:00:24;11.80;;;2.53;;
63434;SDS011;68814;50.872;5.306;2023-12-20T11:02:50;16.63;;;3.13;;
63434;SDS011;68814;50.872;5.306;2023-12-20T11:05:25;16.27;;;2.17;;
63434;SDS011;68814;50.872;5.306;2023-12-20T11:08:12;21.30;;;3.20;;
63434;SDS011;68814;50.872;5.306;2023-12-20T11:11:07;17.65;;;2.60;;
63434;SDS011;68814;50.872;5.306;2023-12-20T11:14:05;12.55;;;2.13;;
63434;SDS011;68814;50.872;5.306;2023-12-20T11:16:36;18.50;;;2.40;;
63434;SDS011;68814;50.872;5.306;2023-12-20T11:19:05;18.85;;;3.00;;
63434;SDS011;68814;50.872;5.306;2023-12-20T11:21:31;11.70;;;3.45;;
63434;SDS011;68814;50.872;5.306;2023-12-20T11:23:58;14.65;;;3.90;;
63434;SDS011;68814;50.872;5.306;2023-12-20T11:26:28;18.88;;;2.95;;
63434;SDS011;68814;50.872;5.306;2023-12-20T11:28:56;17.10;;;2.22;;
63434;SDS011;68814;50.872;5.306;2023-12-20T11:32:03;12.77;;;2.45;;
63434;SDS011;68814;50.872;5.306;2023-12-20T11:34:50;16.85;;;4.00;;
63434;SDS011;68814;50.872;5.306;2023-12-20T11:37:16;11.32;;;2.50;;
63434;SDS011;68814;50.872;5.306;2023-12-20T11:39:45;17.08;;;2.65;;
63434;SDS011;68814;50.872;5.306;2023-12-20T11:42:10;15.25;;;2.80;;
63434;SDS011;68814;50.872;5.306;2023-12-20T11:44:36;11.65;;;2.30;;
63434;SDS011;68814;50.872;5.306;2023-12-20T11:47:02;18.08;;;2.58;;
63434;SDS011;68814;50.872;5.306;2023-12-20T11:49:28;10.73;;;2.35;;
63434;SDS011;68814;50.872;5.306;2023-12-20T11:51:56;13.35;;;2.58;;
63434;SDS011;68814;50.872;5.306;2023-12-20T11:54:22;17.20;;;2.72;;
63434;SDS011;68814;50.872;5.306;2023-12-20T11:56:48;19.63;;;3.13;;
63434;SDS011;68814;50.872;5.306;2023-12-20T11:59:14;16.65;;;3.08;;
63434;SDS011;68814;50.872;5.306;2023-12-20T12:01:40;15.00;;;2.75;;
63434;SDS011;68814;50.872;5.306;2023-12-20T12:04:12;12.40;;;2.47;;
63434;SDS011;68814;50.872;5.306;2023-12-20T12:06:39;13.65;;;2.30;;
63434;SDS011;68814;50.872;5.306;2023-12-20T12:09:04;9.15;;;2.47;;
63434;SDS011;68814;50.872;5.306;2023-12-20T12:11:30;21.23;;;4.30;;
63434;SDS011;68814;50.872;5.306;2023-12-20T12:13:56;18.77;;;3.28;;
63434;SDS011;68814;50.872;5.306;2023-12-20T12:16:22;17.40;;;3.60;;
63434;SDS011;68814;50.872;5.306;2023-12-20T12:18:57;14.98;;;3.88;;
63434;SDS011;68814;50.872;5.306;2023-12-20T12:21:23;16.05;;;2.30;;
63434;SDS011;68814;50.872;5.306;2023-12-20T12:23:49;24.65;;;3.42;;
63434;SDS011;68814;50.872;5.306;2023-12-20T12:26:15;17.88;;;2.83;;
63434;SDS011;68814;50.872;5.306;2023-12-20T12:28:41;22.30;;;3.83;;
63434;SDS011;68814;50.872;5.306;2023-12-20T12:31:08;10.82;;;2.63;;
63434;SDS011;68814;50.872;5.306;2023-12-20T12:33:38;18.77;;;2.80;;
63434;SDS011;68814;50.872;5.306;2023-12-20T12:36:06;17.88;;;3.00;;
63434;SDS011;68814;50.872;5.306;2023-12-20T12:38:35;16.23;;;2.38;;
63434;SDS011;68814;50.872;5.306;2023-12-20T12:41:01;15.25;;;2.90;;
63434;SDS011;68814;50.872;5.306;2023-12-20T12:43:30;16.48;;;3.40;;
63434;SDS011;68814;50.872;5.306;2023-12-20T12:45:56;14.57;;;2.75;;
63434;SDS011;68814;50.872;5.306;2023-12-20T12:48:24;18.48;;;2.72;;
63434;SDS011;68814;50.872;5.306;2023-12-20T12:50:50;15.00;;;2.80;;
63434;SDS011;68814;50.872;5.306;2023-12-20T12:53:18;12.43;;;3.70;;
63434;SDS011;68814;50.872;5.306;2023-12-20T12:55:43;12.90;;;3.35;;
63434;SDS011;68814;50.872;5.306;2023-12-20T12:58:11;17.95;;;3.08;;
63434;SDS011;68814;50.872;5.306;2023-12-20T13:00:37;17.65;;;3.85;;
63434;SDS011;68814;50.872;5.306;2023-12-20T13:03:03;19.13;;;3.03;;
63434;SDS011;68814;50.872;5.306;2023-12-20T13:05:29;16.55;;;3.03;;
63434;SDS011;68814;50.872;5.306;2023-12-20T13:07:55;17.55;;;2.90;;
63434;SDS011;68814;50.872;5.306;2023-12-20T13:10:21;14.43;;;2.20;;
63434;SDS011;68814;50.872;5.306;2023-12-20T13:12:46;15.77;;;3.13;;
63434;SDS011;68814;50.872;5.306;2023-12-20T13:15:12;15.93;;;2.47;;
63434;SDS011;68814;50.872;5.306;2023-12-20T13:17:38;13.68;;;2.97;;
63434;SDS011;68814;50.872;5.306;2023-12-20T13:20:05;19.58;;;3.50;;
63434;SDS011;68814;50.872;5.306;2023-12-20T13:22:31;16.52;;;3.40;;
63434;SDS011;68814;50.872;5.306;2023-12-20T13:24:57;13.13;;;2.78;;
63434;SDS011;68814;50.872;5.306;2023-12-20T13:27:22;21.80;;;3.58;;
63434;SDS011;68814;50.872;5.306;2023-12-20T13:29:49;17.48;;;3.22;;
63434;SDS011;68814;50.872;5.306;2023-12-20T13:32:14;17.13;;;2.95;;
63434;SDS011;68814;50.872;5.306;2023-12-20T13:34:40;16.63;;;2.95;;
63434;SDS011;68814;50.872;5.306;2023-12-20T13:37:06;19.15;;;2.70;;
63434;SDS011;68814;50.872;5.306;2023-12-20T13:39:31;17.42;;;3.42;;
63434;SDS011;68814;50.872;5.306;2023-12-20T13:41:57;13.00;;;3.05;;
63434;SDS011;68814;50.872;5.306;2023-12-20T13:44:23;22.15;;;4.03;;
63434;SDS011;68814;50.872;5.306;2023-12-20T13:46:49;23.35;;;3.97;;
63434;SDS011;68814;50.872;5.306;2023-12-20T13:49:15;13.43;;;3.10;;
63434;SDS011;68814;50.872;5.306;2023-12-20T13:51:41;16.30;;;3.60;;
63434;SDS011;68814;50.872;5.306;2023-12-20T13:54:07;26.52;;;4.15;;
63434;SDS011;68814;50.872;5.306;2023-12-20T13:56:33;15.35;;;3.30;;
63434;SDS011;68814;50.872;5.306;2023-12-20T13:58:59;15.77;;;2.92;;
63434;SDS011;68814;50.872;5.306;2023-12-20T14:01:38;19.60;;;3.78;;
63434;SDS011;68814;50.872;5.306;2023-12-20T14:04:04;15.65;;;3.67;;
63434;SDS011;68814;50.872;5.306;2023-12-20T14:09:25;12.98;;;3.22;;
63434;SDS011;68814;50.872;5.306;2023-12-20T14:15:05;21.97;;;3.43;;
63434;SDS011;68814;50.872;5.306;2023-12-20T14:17:38;18.27;;;5.72;;
63434;SDS011;68814;50.872;5.306;2023-12-20T14:20:05;17.80;;;3.15;;
63434;SDS011;68814;50.872;5.306;2023-12-20T14:22:44;17.70;;;3.58;;
63434;SDS011;68814;50.872;5.306;2023-12-20T14:25:11;18.88;;;3.22;;
63434;SDS011;68814;50.872;5.306;2023-12-20T14:27:37;18.73;;;3.75;;
63434;SDS011;68814;50.872;5.306;2023-12-20T14:30:05;20.02;;;3.45;;
63434;SDS011;68814;50.872;5.306;2023-12-20T14:32:31;11.77;;;2.85;;
63434;SDS011;68814;50.872;5.306;2023-12-20T14:34:59;21.02;;;3.50;;
63434;SDS011;68814;50.872;5.306;2023-12-20T14:37:25;13.23;;;3.63;;
63434;SDS011;68814;50.872;5.306;2023-12-20T14:39:51;18.15;;;3.92;;
63434;SDS011;68814;50.872;5.306;2023-12-20T14:42:17;17.42;;;3.00;;